createdAt,value
2016-09-30T00:00:33.287Z,0
2016-09-30T00:01:32.734Z,0
2016-09-30T00:02:32.665Z,0
2016-09-30T00:03:33.121Z,0
2016-09-30T00:04:32.861Z,0
2016-09-30T00:05:33.014Z,0
2016-09-30T00:06:32.476Z,0
2016-09-30T00:07:32.720Z,0
2016-09-30T00:08:32.891Z,0
2016-09-30T00:09:32.636Z,0
2016-09-30T00:10:32.799Z,0
2016-09-30T00:11:32.941Z,0
2016-09-30T00:12:32.182Z,0
2016-09-30T00:13:32.665Z,0
2016-09-30T00:14:32.297Z,0
2016-09-30T00:15:32.294Z,0
2016-09-30T00:16:33.096Z,0
2016-09-30T00:17:32.258Z,0
2016-09-30T00:18:32.606Z,0
2016-09-30T00:19:32.135Z,0
2016-09-30T00:20:32.310Z,0
2016-09-30T00:21:32.253Z,0
2016-09-30T00:22:31.938Z,0
2016-09-30T00:23:31.955Z,0
2016-09-30T00:24:31.587Z,0
2016-09-30T00:25:32.081Z,0
2016-09-30T00:26:31.800Z,0
2016-09-30T00:27:31.168Z,0
2016-09-30T00:28:31.659Z,0
2016-09-30T00:29:31.655Z,0
2016-09-30T00:30:31.008Z,0
2016-09-30T00:31:31.279Z,0
2016-09-30T00:32:31.240Z,0
2016-09-30T00:33:31.869Z,0
2016-09-30T00:34:31.186Z,0
2016-09-30T00:35:31.398Z,0
2016-09-30T00:36:31.655Z,0
2016-09-30T00:37:31.298Z,0
2016-09-30T00:38:30.921Z,0
2016-09-30T00:39:31.225Z,0
2016-09-30T00:40:31.573Z,0
2016-09-30T00:41:31.334Z,0
2016-09-30T00:42:30.756Z,0
2016-09-30T00:43:31.010Z,0
2016-09-30T00:44:30.934Z,0
2016-09-30T00:45:31.238Z,0
2016-09-30T00:46:30.839Z,0
2016-09-30T00:47:30.984Z,0
2016-09-30T00:48:30.757Z,0
2016-09-30T00:49:30.294Z,0
2016-09-30T00:50:30.752Z,0
2016-09-30T00:51:30.700Z,0
2016-09-30T00:52:30.452Z,0
2016-09-30T00:53:30.411Z,0
2016-09-30T00:54:30.668Z,0
2016-09-30T00:55:30.515Z,0
2016-09-30T00:56:30.590Z,0
2016-09-30T00:57:30.721Z,0
2016-09-30T00:58:30.477Z,0
2016-09-30T00:59:30.140Z,0
2016-09-30T01:00:30.378Z,0
2016-09-30T01:01:30.222Z,0
2016-09-30T01:02:29.995Z,0
2016-09-30T01:03:30.110Z,0
2016-09-30T01:04:29.674Z,0
2016-09-30T01:05:29.826Z,0
2016-09-30T01:06:29.906Z,0
2016-09-30T01:07:30.269Z,0
2016-09-30T01:08:29.821Z,0
2016-09-30T01:09:29.862Z,0
2016-09-30T01:10:29.394Z,0
2016-09-30T01:11:29.378Z,0
2016-09-30T01:12:29.283Z,0
2016-09-30T01:13:29.234Z,0
2016-09-30T01:14:29.810Z,0
2016-09-30T01:15:29.560Z,0
2016-09-30T01:16:28.986Z,0
2016-09-30T01:17:29.040Z,0
2016-09-30T01:18:29.361Z,0
2016-09-30T01:19:29.282Z,0
2016-09-30T01:20:29.217Z,0
2016-09-30T01:21:29.063Z,0
2016-09-30T01:22:28.706Z,0
2016-09-30T01:23:29.179Z,0
2016-09-30T01:24:29.232Z,0
2016-09-30T01:25:28.907Z,0
2016-09-30T01:26:28.823Z,0
2016-09-30T01:27:29.265Z,0
2016-09-30T01:28:29.033Z,0
2016-09-30T01:29:28.478Z,0
2016-09-30T01:30:29.167Z,0
2016-09-30T01:31:28.382Z,0
2016-09-30T01:32:28.861Z,0
2016-09-30T01:33:28.474Z,0
2016-09-30T01:34:28.553Z,0
2016-09-30T01:35:28.679Z,0
2016-09-30T01:36:28.322Z,0
2016-09-30T01:37:28.075Z,0
2016-09-30T01:38:28.382Z,0
2016-09-30T01:39:28.195Z,0
2016-09-30T01:40:28.231Z,0
2016-09-30T01:41:28.132Z,0
2016-09-30T01:42:28.336Z,0
2016-09-30T01:43:28.309Z,0
2016-09-30T01:44:27.743Z,0
2016-09-30T01:45:28.210Z,0
2016-09-30T01:46:27.410Z,0
2016-09-30T01:47:27.796Z,0
2016-09-30T01:48:27.555Z,0
2016-09-30T01:49:27.812Z,0
2016-09-30T01:50:27.445Z,0
2016-09-30T01:51:27.794Z,0
2016-09-30T01:52:27.588Z,0
2016-09-30T01:53:27.639Z,0
2016-09-30T01:54:27.457Z,0
2016-09-30T01:55:27.525Z,0
2016-09-30T01:56:27.166Z,0
2016-09-30T01:57:27.126Z,0
2016-09-30T01:58:27.473Z,0
2016-09-30T01:59:27.307Z,0
2016-09-30T02:00:26.973Z,0
2016-09-30T02:01:27.231Z,0
2016-09-30T02:02:27.131Z,0
2016-09-30T02:03:27.152Z,0
2016-09-30T02:04:26.778Z,0
2016-09-30T02:05:26.739Z,0
2016-09-30T02:06:26.684Z,0
2016-09-30T02:07:26.619Z,0
2016-09-30T02:08:26.948Z,0
2016-09-30T02:09:26.618Z,0
2016-09-30T02:10:26.790Z,0
2016-09-30T02:11:26.968Z,0
2016-09-30T02:12:26.731Z,0
2016-09-30T02:13:26.688Z,0
2016-09-30T02:14:26.601Z,0
2016-09-30T02:15:26.249Z,0
2016-09-30T02:16:26.543Z,0
2016-09-30T02:17:26.865Z,0
2016-09-30T02:18:26.416Z,0
2016-09-30T02:19:26.046Z,0
2016-09-30T02:20:26.317Z,0
2016-09-30T02:21:26.266Z,0
2016-09-30T02:22:26.203Z,0
2016-09-30T02:23:26.176Z,0
2016-09-30T02:24:25.579Z,0
2016-09-30T02:25:26.141Z,0
2016-09-30T02:26:26.067Z,0
2016-09-30T02:27:25.974Z,0
2016-09-30T02:28:25.813Z,0
2016-09-30T02:29:25.599Z,0
2016-09-30T02:30:25.534Z,0
2016-09-30T02:31:25.668Z,0
2016-09-30T02:32:25.431Z,0
2016-09-30T02:33:25.583Z,0
2016-09-30T02:34:25.353Z,0
2016-09-30T02:35:25.581Z,0
2016-09-30T02:36:25.537Z,0
2016-09-30T02:37:25.488Z,0
2016-09-30T02:38:24.836Z,0
2016-09-30T02:39:24.798Z,0
2016-09-30T02:40:25.344Z,0
2016-09-30T02:41:25.488Z,0
2016-09-30T02:42:24.933Z,0
2016-09-30T02:43:24.305Z,0
2016-09-30T02:44:25.136Z,0
2016-09-30T02:45:25.283Z,0
2016-09-30T02:46:24.451Z,0
2016-09-30T02:47:24.887Z,0
2016-09-30T02:48:24.653Z,0
2016-09-30T02:49:24.906Z,0
2016-09-30T02:50:24.843Z,0
2016-09-30T02:51:25.025Z,0
2016-09-30T02:52:24.963Z,0
2016-09-30T02:53:24.712Z,0
2016-09-30T02:54:24.057Z,0
2016-09-30T02:55:24.605Z,0
2016-09-30T02:56:24.563Z,0
2016-09-30T02:57:24.503Z,0
2016-09-30T02:58:24.707Z,0
2016-09-30T02:59:24.608Z,0
2016-09-30T03:00:24.063Z,0
2016-09-30T03:01:24.522Z,0
2016-09-30T03:02:24.230Z,0
2016-09-30T03:03:23.928Z,0
2016-09-30T03:04:23.882Z,0
2016-09-30T03:05:24.167Z,0
2016-09-30T03:06:23.785Z,0
2016-09-30T03:07:24.084Z,0
2016-09-30T03:08:23.737Z,0
2016-09-30T03:09:23.938Z,0
2016-09-30T03:10:23.565Z,0
2016-09-30T03:11:23.848Z,0
2016-09-30T03:12:23.187Z,0
2016-09-30T03:13:23.783Z,0
2016-09-30T03:14:23.438Z,0
2016-09-30T03:15:23.718Z,0
2016-09-30T03:16:23.289Z,0
2016-09-30T03:17:23.264Z,0
2016-09-30T03:18:23.506Z,0
2016-09-30T03:19:22.852Z,0
2016-09-30T03:20:23.426Z,0
2016-09-30T03:21:23.450Z,0
2016-09-30T03:22:23.315Z,0
2016-09-30T03:23:23.283Z,0
2016-09-30T03:24:22.915Z,0
2016-09-30T03:25:23.180Z,0
2016-09-30T03:26:23.315Z,0
2016-09-30T03:27:22.773Z,0
2016-09-30T03:28:22.712Z,0
2016-09-30T03:29:22.973Z,0
2016-09-30T03:30:22.821Z,0
2016-09-30T03:31:22.937Z,0
2016-09-30T03:32:23.041Z,0
2016-09-30T03:33:22.461Z,0
2016-09-30T03:34:22.437Z,0
2016-09-30T03:35:22.571Z,0
2016-09-30T03:36:22.329Z,0
2016-09-30T03:37:22.475Z,0
2016-09-30T03:38:22.585Z,0
2016-09-30T03:39:22.504Z,0
2016-09-30T03:40:22.144Z,0
2016-09-30T03:41:22.109Z,0
2016-09-30T03:42:22.348Z,0
2016-09-30T03:43:22.297Z,0
2016-09-30T03:44:22.245Z,0
2016-09-30T03:45:22.214Z,0
2016-09-30T03:46:22.158Z,0
2016-09-30T03:47:21.689Z,0
2016-09-30T03:48:22.065Z,0
2016-09-30T03:49:22.213Z,0
2016-09-30T03:50:21.966Z,0
2016-09-30T03:51:21.299Z,0
2016-09-30T03:52:21.908Z,0
2016-09-30T03:53:21.518Z,0
2016-09-30T03:54:21.524Z,0
2016-09-30T03:55:21.405Z,0
2016-09-30T03:56:21.363Z,0
2016-09-30T03:57:21.349Z,0
2016-09-30T03:58:21.277Z,0
2016-09-30T03:59:21.242Z,0
2016-09-30T04:00:21.232Z,0
2016-09-30T04:01:21.691Z,0
2016-09-30T04:02:21.089Z,0
2016-09-30T04:03:21.649Z,0
2016-09-30T04:04:20.979Z,0
2016-09-30T04:05:21.295Z,0
2016-09-30T04:06:21.188Z,0
2016-09-30T04:07:21.148Z,0
2016-09-30T04:08:20.784Z,0
2016-09-30T04:09:21.135Z,0
2016-09-30T04:10:20.886Z,0
2016-09-30T04:11:21.242Z,0
2016-09-30T04:12:20.576Z,0
2016-09-30T04:13:21.060Z,0
2016-09-30T04:14:20.502Z,0
2016-09-30T04:15:20.745Z,0
2016-09-30T04:16:20.452Z,0
2016-09-30T04:17:20.339Z,0
2016-09-30T04:18:20.598Z,0
2016-09-30T04:19:20.233Z,0
2016-09-30T04:20:19.929Z,0
2016-09-30T04:21:19.848Z,0
2016-09-30T04:22:20.361Z,0
2016-09-30T04:23:20.581Z,0
2016-09-30T04:24:19.700Z,0
2016-09-30T04:25:20.475Z,0
2016-09-30T04:26:19.939Z,0
2016-09-30T04:27:20.068Z,0
2016-09-30T04:28:20.123Z,0
2016-09-30T04:29:20.275Z,0
2016-09-30T04:30:19.963Z,0
2016-09-30T04:31:19.871Z,0
2016-09-30T04:32:19.612Z,0
2016-09-30T04:33:20.089Z,0
2016-09-30T04:34:19.852Z,0
2016-09-30T04:35:19.799Z,0
2016-09-30T04:36:19.929Z,0
2016-09-30T04:37:19.399Z,0
2016-09-30T04:38:19.529Z,0
2016-09-30T04:39:19.269Z,0
2016-09-30T04:40:19.543Z,0
2016-09-30T04:41:19.202Z,0
2016-09-30T04:42:20.067Z,0
2016-09-30T04:43:19.610Z,0
2016-09-30T04:44:18.423Z,0
2016-09-30T04:45:19.919Z,0
2016-09-30T04:46:19.385Z,0
2016-09-30T04:47:19.403Z,0
2016-09-30T04:48:18.831Z,0
2016-09-30T04:49:19.124Z,0
2016-09-30T04:50:18.769Z,0
2016-09-30T04:51:19.253Z,0
2016-09-30T04:52:19.387Z,0
2016-09-30T04:53:19.363Z,0
2016-09-30T04:54:18.966Z,0
2016-09-30T04:55:18.834Z,0
2016-09-30T04:56:18.771Z,0
2016-09-30T04:57:18.111Z,0
2016-09-30T04:58:18.351Z,0
2016-09-30T04:59:18.677Z,0
2016-09-30T05:00:18.959Z,0
2016-09-30T05:01:18.109Z,0
2016-09-30T05:02:18.688Z,0
2016-09-30T05:03:18.421Z,0
2016-09-30T05:04:18.090Z,0
2016-09-30T05:05:18.335Z,0
2016-09-30T05:06:18.297Z,0
2016-09-30T05:07:18.129Z,0
2016-09-30T05:08:18.281Z,0
2016-09-30T05:09:17.823Z,0
2016-09-30T05:10:17.775Z,0
2016-09-30T05:11:18.056Z,0
2016-09-30T05:12:18.408Z,4
2016-09-30T05:13:18.135Z,4
2016-09-30T05:14:18.102Z,4
2016-09-30T05:15:17.954Z,0
2016-09-30T05:16:18.020Z,4
2016-09-30T05:17:17.966Z,4
2016-09-30T05:18:17.895Z,4
2016-09-30T05:19:17.672Z,4
2016-09-30T05:20:17.921Z,4
2016-09-30T05:21:17.517Z,8
2016-09-30T05:22:17.102Z,12
2016-09-30T05:23:17.229Z,8
2016-09-30T05:24:17.108Z,12
2016-09-30T05:25:17.461Z,12
2016-09-30T05:26:17.356Z,12
2016-09-30T05:27:16.650Z,16
2016-09-30T05:28:17.330Z,16
2016-09-30T05:29:16.872Z,20
2016-09-30T05:30:17.120Z,24
2016-09-30T05:31:17.279Z,24
2016-09-30T05:32:16.721Z,28
2016-09-30T05:33:16.669Z,32
2016-09-30T05:34:16.636Z,36
2016-09-30T05:35:16.781Z,40
2016-09-30T05:36:16.515Z,48
2016-09-30T05:37:16.364Z,48
2016-09-30T05:38:16.461Z,52
2016-09-30T05:39:16.793Z,56
2016-09-30T05:40:16.563Z,60
2016-09-30T05:41:16.290Z,68
2016-09-30T05:42:16.755Z,72
2016-09-30T05:43:16.126Z,84
2016-09-30T05:44:16.653Z,100
2016-09-30T05:45:16.306Z,112
2016-09-30T05:46:16.331Z,124
2016-09-30T05:47:16.301Z,132
2016-09-30T05:48:16.484Z,140
2016-09-30T05:49:16.101Z,148
2016-09-30T05:50:16.161Z,160
2016-09-30T05:51:16.149Z,172
2016-09-30T05:52:16.042Z,184
2016-09-30T05:53:16.684Z,196
2016-09-30T05:54:15.672Z,204
2016-09-30T05:55:16.152Z,216
2016-09-30T05:56:15.865Z,224
2016-09-30T05:57:15.501Z,236
2016-09-30T05:58:15.463Z,244
2016-09-30T05:59:15.920Z,248
2016-09-30T06:00:15.716Z,260
2016-09-30T06:01:14.696Z,280
2016-09-30T06:02:15.291Z,292
2016-09-30T06:03:15.742Z,304
2016-09-30T06:04:15.665Z,320
2016-09-30T06:05:15.450Z,336
2016-09-30T06:06:15.285Z,352
2016-09-30T06:07:15.233Z,368
2016-09-30T06:08:15.166Z,384
2016-09-30T06:09:14.606Z,404
2016-09-30T06:10:15.429Z,432
2016-09-30T06:11:15.126Z,460
2016-09-30T06:12:14.995Z,492
2016-09-30T06:13:15.246Z,544
2016-09-30T06:14:14.973Z,564
2016-09-30T06:15:14.323Z,576
2016-09-30T06:16:14.598Z,604
2016-09-30T06:17:14.841Z,632
2016-09-30T06:18:14.805Z,652
2016-09-30T06:19:14.961Z,660
2016-09-30T06:20:14.680Z,660
2016-09-30T06:21:14.339Z,668
2016-09-30T06:22:14.021Z,676
2016-09-30T06:23:14.452Z,696
2016-09-30T06:24:14.517Z,700
2016-09-30T06:25:14.138Z,676
2016-09-30T06:26:14.381Z,640
2016-09-30T06:27:14.361Z,656
2016-09-30T06:28:14.208Z,688
2016-09-30T06:29:14.251Z,772
2016-09-30T06:30:13.915Z,760
2016-09-30T06:31:14.560Z,740
2016-09-30T06:32:14.347Z,684
2016-09-30T06:33:14.147Z,700
2016-09-30T06:34:14.240Z,796
2016-09-30T06:35:13.978Z,792
2016-09-30T06:36:13.963Z,748
2016-09-30T06:37:13.892Z,676
2016-09-30T06:38:13.910Z,744
2016-09-30T06:39:13.557Z,708
2016-09-30T06:40:14.623Z,656
2016-09-30T06:41:13.363Z,656
2016-09-30T06:42:13.500Z,660
2016-09-30T06:43:13.282Z,652
2016-09-30T06:44:13.717Z,656
2016-09-30T06:45:13.176Z,648
2016-09-30T06:46:13.640Z,640
2016-09-30T06:47:13.367Z,644
2016-09-30T06:48:12.932Z,664
2016-09-30T06:49:12.985Z,676
2016-09-30T06:50:13.499Z,740
2016-09-30T06:51:12.868Z,768
2016-09-30T06:52:13.406Z,700
2016-09-30T06:53:13.142Z,708
2016-09-30T06:54:12.741Z,756
2016-09-30T06:55:12.695Z,672
2016-09-30T06:56:12.975Z,664
2016-09-30T06:57:12.291Z,648
2016-09-30T06:58:12.574Z,648
2016-09-30T06:59:12.689Z,648
2016-09-30T07:00:13.180Z,656
2016-09-30T07:01:12.704Z,676
2016-09-30T07:02:13.045Z,688
2016-09-30T07:03:13.005Z,704
2016-09-30T07:04:12.567Z,740
2016-09-30T07:05:12.499Z,800
2016-09-30T07:06:12.657Z,932
2016-09-30T07:07:12.437Z,996
2016-09-30T07:08:12.571Z,1004
2016-09-30T07:09:12.023Z,1056
2016-09-30T07:10:12.184Z,1000
2016-09-30T07:11:11.983Z,936
2016-09-30T07:12:11.885Z,756
2016-09-30T07:13:11.919Z,752
2016-09-30T07:14:11.782Z,748
2016-09-30T07:15:12.031Z,752
2016-09-30T07:16:11.980Z,760
2016-09-30T07:17:11.822Z,772
2016-09-30T07:18:11.332Z,792
2016-09-30T07:19:11.666Z,816
2016-09-30T07:20:11.997Z,844
2016-09-30T07:21:11.466Z,860
2016-09-30T07:22:11.746Z,864
2016-09-30T07:23:11.678Z,852
2016-09-30T07:24:11.304Z,840
2016-09-30T07:25:11.677Z,828
2016-09-30T07:26:11.501Z,820
2016-09-30T07:27:10.852Z,816
2016-09-30T07:28:11.159Z,812
2016-09-30T07:29:11.373Z,808
2016-09-30T07:30:10.731Z,812
2016-09-30T07:31:10.649Z,808
2016-09-30T07:32:11.330Z,808
2016-09-30T07:33:12.057Z,812
2016-09-30T07:34:11.801Z,816
2016-09-30T07:35:11.146Z,820
2016-09-30T07:36:10.759Z,816
2016-09-30T07:37:11.195Z,820
2016-09-30T07:38:10.655Z,824
2016-09-30T07:39:10.624Z,824
2016-09-30T07:40:10.570Z,832
2016-09-30T07:41:11.011Z,840
2016-09-30T07:42:10.128Z,852
2016-09-30T07:43:10.700Z,852
2016-09-30T07:44:10.661Z,860
2016-09-30T07:45:10.536Z,860
2016-09-30T07:46:10.472Z,864
2016-09-30T07:47:10.204Z,880
2016-09-30T07:48:09.872Z,892
2016-09-30T07:49:10.666Z,908
2016-09-30T07:50:10.353Z,928
2016-09-30T07:51:10.618Z,952
2016-09-30T07:52:10.729Z,972
2016-09-30T07:53:10.225Z,996
2016-09-30T07:54:10.244Z,1016
2016-09-30T07:55:09.533Z,1040
2016-09-30T07:56:10.289Z,1060
2016-09-30T07:57:10.136Z,1084
2016-09-30T07:58:09.400Z,1104
2016-09-30T07:59:10.167Z,1124
2016-09-30T08:00:09.590Z,1148
2016-09-30T08:01:09.627Z,1160
2016-09-30T08:02:09.787Z,1172
2016-09-30T08:03:09.515Z,1184
2016-09-30T08:04:09.863Z,1192
2016-09-30T08:05:09.506Z,1196
2016-09-30T08:06:09.600Z,1188
2016-09-30T08:07:09.302Z,1164
2016-09-30T08:08:09.334Z,1112
2016-09-30T08:09:09.773Z,1120
2016-09-30T08:10:09.302Z,1136
2016-09-30T08:11:09.333Z,1156
2016-09-30T08:12:09.028Z,1164
2016-09-30T08:13:09.370Z,1140
2016-09-30T08:14:08.936Z,1156
2016-09-30T08:15:08.571Z,1180
2016-09-30T08:16:08.860Z,1192
2016-09-30T08:17:08.789Z,1192
2016-09-30T08:18:09.104Z,1196
2016-09-30T08:19:09.011Z,1212
2016-09-30T08:20:08.925Z,1220
2016-09-30T08:21:08.885Z,1232
2016-09-30T08:22:08.532Z,1288
2016-09-30T08:23:08.499Z,1296
2016-09-30T08:24:08.988Z,1308
2016-09-30T08:25:08.459Z,1312
2016-09-30T08:26:08.350Z,1332
2016-09-30T08:27:08.598Z,1348
2016-09-30T08:28:08.541Z,1364
2016-09-30T08:29:08.261Z,1368
2016-09-30T08:30:08.152Z,1364
2016-09-30T08:31:08.281Z,1364
2016-09-30T08:32:08.260Z,1364
2016-09-30T08:33:08.039Z,1360
2016-09-30T08:34:08.345Z,1344
2016-09-30T08:35:07.958Z,1332
2016-09-30T08:36:08.903Z,1324
2016-09-30T08:37:07.849Z,1320
2016-09-30T08:38:08.082Z,1312
2016-09-30T08:39:07.624Z,1324
2016-09-30T08:40:08.002Z,1340
2016-09-30T08:41:07.556Z,1368
2016-09-30T08:42:07.827Z,1396
2016-09-30T08:43:07.311Z,1428
2016-09-30T08:44:08.213Z,1452
2016-09-30T08:45:07.466Z,1472
2016-09-30T08:46:07.098Z,1476
2016-09-30T08:47:07.677Z,1480
2016-09-30T08:48:07.680Z,1476
2016-09-30T08:49:07.337Z,1476
2016-09-30T08:50:06.985Z,1488
2016-09-30T08:51:07.637Z,1516
2016-09-30T08:52:07.434Z,1504
2016-09-30T08:53:07.493Z,1496
2016-09-30T08:54:07.044Z,1500
2016-09-30T08:55:07.043Z,1492
2016-09-30T08:56:07.221Z,1492
2016-09-30T08:57:07.222Z,1496
2016-09-30T08:58:07.160Z,1484
2016-09-30T08:59:07.378Z,1464
2016-09-30T09:00:07.148Z,1440
2016-09-30T09:01:06.858Z,1428
2016-09-30T09:02:06.705Z,1432
2016-09-30T09:03:06.949Z,1452
2016-09-30T09:04:06.315Z,1460
2016-09-30T09:05:06.402Z,1488
2016-09-30T09:06:06.518Z,1504
2016-09-30T09:07:06.761Z,1540
2016-09-30T09:08:06.898Z,1584
2016-09-30T09:09:06.827Z,1652
2016-09-30T09:10:06.811Z,1708
2016-09-30T09:11:06.647Z,1724
2016-09-30T09:12:06.748Z,1736
2016-09-30T09:13:06.116Z,1772
2016-09-30T09:14:06.399Z,1844
2016-09-30T09:15:05.768Z,1912
2016-09-30T09:16:06.369Z,1964
2016-09-30T09:17:06.208Z,2132
2016-09-30T09:18:05.842Z,2188
2016-09-30T09:19:06.259Z,2184
2016-09-30T09:20:05.883Z,2272
2016-09-30T09:21:05.815Z,2440
2016-09-30T09:22:05.732Z,2512
2016-09-30T09:23:06.141Z,2440
2016-09-30T09:24:05.857Z,2540
2016-09-30T09:25:05.635Z,2576
2016-09-30T09:26:06.094Z,2644
2016-09-30T09:27:05.848Z,2632
2016-09-30T09:28:05.939Z,2712
2016-09-30T09:29:05.977Z,2700
2016-09-30T09:30:05.903Z,2680
2016-09-30T09:31:06.014Z,2540
2016-09-30T09:32:05.578Z,2668
2016-09-30T09:33:05.331Z,2848
2016-09-30T09:34:05.478Z,3368
2016-09-30T09:35:05.136Z,2856
2016-09-30T09:36:05.599Z,2400
2016-09-30T09:37:05.602Z,5124
2016-09-30T09:38:05.041Z,2788
2016-09-30T09:39:04.922Z,2144
2016-09-30T09:40:05.225Z,2176
2016-09-30T09:41:04.838Z,2136
2016-09-30T09:42:05.299Z,2048
2016-09-30T09:43:05.146Z,1992
2016-09-30T09:44:05.032Z,1940
2016-09-30T09:45:04.945Z,1896
2016-09-30T09:46:04.992Z,1860
2016-09-30T09:47:04.540Z,1840
2016-09-30T09:48:04.822Z,1776
2016-09-30T09:49:04.856Z,1728
2016-09-30T09:50:04.921Z,1696
2016-09-30T09:51:05.178Z,1664
2016-09-30T09:52:04.313Z,1628
2016-09-30T09:53:05.458Z,1632
2016-09-30T09:54:04.846Z,1664
2016-09-30T09:55:04.616Z,1676
2016-09-30T09:56:04.482Z,1716
2016-09-30T09:57:04.145Z,1800
2016-09-30T09:58:04.393Z,1864
2016-09-30T09:59:04.363Z,1852
2016-09-30T10:00:04.396Z,1824
2016-09-30T10:01:04.219Z,1772
2016-09-30T10:02:04.254Z,1704
2016-09-30T10:03:04.371Z,1684
2016-09-30T10:04:03.639Z,1784
2016-09-30T10:05:04.133Z,1900
2016-09-30T10:06:04.233Z,1992
2016-09-30T10:07:03.664Z,2132
2016-09-30T10:08:04.039Z,2196
2016-09-30T10:09:04.030Z,2332
2016-09-30T10:10:03.564Z,2508
2016-09-30T10:11:03.410Z,2744
2016-09-30T10:12:03.405Z,2884
2016-09-30T10:13:03.914Z,3424
2016-09-30T10:14:03.808Z,3680
2016-09-30T10:15:03.243Z,3872
2016-09-30T10:16:02.902Z,3788
2016-09-30T10:17:02.866Z,3892
2016-09-30T10:18:03.580Z,3380
2016-09-30T10:19:03.116Z,3500
2016-09-30T10:20:03.032Z,3452
2016-09-30T10:21:02.988Z,3352
2016-09-30T10:22:02.952Z,3260
2016-09-30T10:23:03.064Z,2568
2016-09-30T10:24:03.291Z,2364
2016-09-30T10:25:03.377Z,2192
2016-09-30T10:26:02.926Z,2088
2016-09-30T10:27:02.617Z,2028
2016-09-30T10:28:02.939Z,1796
2016-09-30T10:29:02.258Z,1580
2016-09-30T10:30:02.451Z,1572
2016-09-30T10:31:02.803Z,1528
2016-09-30T10:32:02.169Z,1604
2016-09-30T10:33:02.711Z,1736
2016-09-30T10:34:02.168Z,1684
2016-09-30T10:35:02.328Z,1580
2016-09-30T10:36:02.251Z,1512
2016-09-30T10:37:02.286Z,1400
2016-09-30T10:38:02.577Z,1192
2016-09-30T10:39:01.927Z,1096
2016-09-30T10:40:01.797Z,1012
2016-09-30T10:41:02.305Z,1176
2016-09-30T10:42:02.193Z,1372
2016-09-30T10:43:02.545Z,1256
2016-09-30T10:44:02.397Z,1296
2016-09-30T10:45:01.839Z,1304
2016-09-30T10:46:01.941Z,1420
2016-09-30T10:47:01.978Z,1308
2016-09-30T10:48:02.009Z,1212
2016-09-30T10:49:01.662Z,1144
2016-09-30T10:50:02.098Z,1188
2016-09-30T10:51:01.575Z,1360
2016-09-30T10:52:01.760Z,1600
2016-09-30T10:53:01.677Z,1764
2016-09-30T10:54:01.487Z,1880
2016-09-30T10:55:01.436Z,1896
2016-09-30T10:56:01.010Z,1956
2016-09-30T10:57:01.745Z,1980
2016-09-30T10:58:01.355Z,1952
2016-09-30T10:59:01.308Z,1900
2016-09-30T11:00:00.887Z,1912
2016-09-30T11:01:01.437Z,1992
2016-09-30T11:02:01.420Z,1996
2016-09-30T11:03:01.356Z,1876
2016-09-30T11:04:01.464Z,1856
2016-09-30T11:05:00.892Z,1764
2016-09-30T11:06:00.763Z,1712
2016-09-30T11:07:01.341Z,1764
2016-09-30T11:08:01.428Z,1760
2016-09-30T11:09:01.663Z,1748
2016-09-30T11:10:01.243Z,1720
2016-09-30T11:11:00.985Z,1876
2016-09-30T11:12:00.913Z,1972
2016-09-30T11:13:00.316Z,2000
2016-09-30T11:14:00.506Z,2012
2016-09-30T11:15:00.749Z,2080
2016-09-30T11:16:00.583Z,2144
2016-09-30T11:17:00.365Z,2108
2016-09-30T11:18:00.276Z,2132
2016-09-30T11:19:00.348Z,2112
2016-09-30T11:20:00.652Z,2052
2016-09-30T11:20:59.862Z,2064
2016-09-30T11:22:00.404Z,1956
2016-09-30T11:23:00.143Z,1876
2016-09-30T11:24:00.033Z,1992
2016-09-30T11:25:00.350Z,2044
2016-09-30T11:26:00.411Z,1972
2016-09-30T11:26:59.862Z,2044
2016-09-30T11:27:59.829Z,2156
2016-09-30T11:29:00.092Z,2256
2016-09-30T11:29:59.744Z,2252
2016-09-30T11:30:59.679Z,2192
2016-09-30T11:32:00.022Z,2092
2016-09-30T11:32:59.273Z,2016
2016-09-30T11:34:00.053Z,2064
2016-09-30T11:34:59.489Z,2048
2016-09-30T11:35:59.770Z,1992
2016-09-30T11:36:59.618Z,1944
2016-09-30T11:37:59.414Z,1908
2016-09-30T11:38:59.683Z,1916
2016-09-30T11:39:59.567Z,1912
2016-09-30T11:40:59.246Z,1872
2016-09-30T11:41:59.790Z,1928
2016-09-30T11:42:59.220Z,2036
2016-09-30T11:43:59.418Z,2132
2016-09-30T11:44:58.770Z,2180
2016-09-30T11:45:59.528Z,2152
2016-09-30T11:46:59.245Z,2120
2016-09-30T11:47:58.930Z,2060
2016-09-30T11:49:13.825Z,1920
2016-09-30T11:49:59.255Z,1784
2016-09-30T11:50:59.014Z,1608
2016-09-30T11:51:58.967Z,1344
2016-09-30T11:52:58.731Z,1108
2016-09-30T11:53:58.885Z,1020
2016-09-30T11:54:58.298Z,1008
2016-09-30T11:55:58.849Z,1072
2016-09-30T11:56:58.742Z,1356
2016-09-30T11:57:59.147Z,1612
2016-09-30T11:58:59.230Z,1904
2016-09-30T11:59:58.353Z,2032
2016-09-30T12:00:59.084Z,2104
2016-09-30T12:01:58.591Z,2124
2016-09-30T12:02:58.644Z,2124
2016-09-30T12:03:58.221Z,2112
2016-09-30T12:04:58.460Z,2100
2016-09-30T12:05:58.436Z,2104
2016-09-30T12:06:58.392Z,2096
2016-09-30T12:07:58.138Z,2088
2016-09-30T12:08:58.328Z,2092
2016-09-30T12:09:58.532Z,2100
2016-09-30T12:10:58.313Z,2136
2016-09-30T12:11:58.068Z,2200
2016-09-30T12:12:57.992Z,2216
2016-09-30T12:13:58.252Z,2208
2016-09-30T12:14:57.647Z,2216
2016-09-30T12:15:57.893Z,2192
2016-09-30T12:16:58.048Z,2196
2016-09-30T12:17:57.556Z,2248
2016-09-30T12:18:57.800Z,2296
2016-09-30T12:19:57.019Z,2332
2016-09-30T12:20:57.715Z,2344
2016-09-30T12:21:57.328Z,2312
2016-09-30T12:22:57.106Z,2236
2016-09-30T12:23:57.583Z,2152
2016-09-30T12:24:57.559Z,2128
2016-09-30T12:25:58.125Z,2176
2016-09-30T12:26:57.360Z,2252
2016-09-30T12:27:57.353Z,2300
2016-09-30T12:28:57.582Z,2300
2016-09-30T12:29:56.646Z,2324
2016-09-30T12:30:57.722Z,2344
2016-09-30T12:31:57.291Z,2316
2016-09-30T12:32:57.114Z,2280
2016-09-30T12:33:56.832Z,2248
2016-09-30T12:34:57.217Z,2264
2016-09-30T12:35:57.197Z,2292
2016-09-30T12:36:56.842Z,2400
2016-09-30T12:37:57.088Z,2400
2016-09-30T12:38:56.890Z,2244
2016-09-30T12:39:57.061Z,2092
2016-09-30T12:40:56.769Z,2000
2016-09-30T12:41:57.005Z,2004
2016-09-30T12:42:56.729Z,2088
2016-09-30T12:43:56.925Z,2180
2016-09-30T12:44:56.762Z,2132
2016-09-30T12:45:56.360Z,2040
2016-09-30T12:46:56.733Z,1952
2016-09-30T12:47:56.273Z,1892
2016-09-30T12:48:56.688Z,1828
2016-09-30T12:49:56.235Z,1880
2016-09-30T12:50:55.978Z,1948
2016-09-30T12:51:55.963Z,2044
2016-09-30T12:52:56.215Z,2156
2016-09-30T12:53:56.488Z,1988
2016-09-30T12:54:55.788Z,1904
2016-09-30T12:55:56.050Z,1980
2016-09-30T12:56:56.101Z,1888
2016-09-30T12:57:55.670Z,2732
2016-09-30T12:58:55.408Z,2164
2016-09-30T12:59:55.634Z,1788
2016-09-30T13:00:55.905Z,1656
2016-09-30T13:01:55.828Z,1704
2016-09-30T13:02:55.785Z,1832
2016-09-30T13:03:55.762Z,1876
2016-09-30T13:04:55.080Z,1904
2016-09-30T13:05:55.301Z,1688
2016-09-30T13:06:55.446Z,1672
2016-09-30T13:07:55.517Z,2208
2016-09-30T13:08:55.469Z,1524
2016-09-30T13:09:55.112Z,1536
2016-09-30T13:10:55.224Z,1392
2016-09-30T13:11:55.345Z,3096
2016-09-30T13:12:55.164Z,2952
2016-09-30T13:13:54.945Z,2156
2016-09-30T13:14:54.868Z,3312
2016-09-30T13:15:54.822Z,2800
2016-09-30T13:16:54.783Z,2172
2016-09-30T13:17:55.274Z,1512
2016-09-30T13:18:55.195Z,1224
2016-09-30T13:19:55.026Z,1228
2016-09-30T13:20:54.817Z,1284
2016-09-30T13:21:54.910Z,1604
2016-09-30T13:22:54.839Z,1728
2016-09-30T13:23:54.495Z,1996
2016-09-30T13:24:54.410Z,1880
2016-09-30T13:25:54.939Z,2560
2016-09-30T13:26:54.916Z,2124
2016-09-30T13:27:55.070Z,2036
2016-09-30T13:28:54.241Z,3176
2016-09-30T13:29:54.101Z,3252
2016-09-30T13:30:54.154Z,3128
2016-09-30T13:31:54.141Z,3252
2016-09-30T13:32:54.360Z,3152
2016-09-30T13:33:54.374Z,3240
2016-09-30T13:34:53.706Z,3124
2016-09-30T13:35:54.368Z,3148
2016-09-30T13:36:53.890Z,3208
2016-09-30T13:37:54.802Z,3188
2016-09-30T13:38:54.195Z,3268
2016-09-30T13:39:53.744Z,3436
2016-09-30T13:40:53.760Z,3408
2016-09-30T13:41:53.961Z,3420
2016-09-30T13:42:53.601Z,3296
2016-09-30T13:43:53.485Z,3308
2016-09-30T13:44:53.516Z,3192
2016-09-30T13:45:53.757Z,3076
2016-09-30T13:46:53.711Z,3048
2016-09-30T13:47:53.393Z,3072
2016-09-30T13:48:53.355Z,2960
2016-09-30T13:49:53.644Z,2028
2016-09-30T13:50:53.578Z,2836
2016-09-30T13:51:53.590Z,3064
2016-09-30T13:52:53.189Z,3000
2016-09-30T13:53:53.095Z,3080
2016-09-30T13:54:53.392Z,3092
2016-09-30T13:55:53.315Z,3088